Time;durP1;ratioP1;P1;durP2;ratioP2;P2;SDS_P1;SDS_P2;PMS_P1;PMS_P2;Temp;Humidity;BMP_temperature;BMP_pressure;BME280_temperature;BME280_humidity;BME280_pressure;Samples;Min_cycle;Max_cycle;Signal;HPM_P1;HPM_P2
2021/11/06 00:00:31;;;;;;;21.40;12.30;;;1.50;99.90;;;;;;2087036;28;20900;-66
2021/11/06 00:01:31;;;;;;;18.47;10.50;;;1.50;99.90;;;;;;2081557;28;20199;-66
2021/11/06 00:02:32;;;;;;;25.23;11.73;;;1.50;99.90;;;;;;2081555;28;20671;-67
2021/11/06 00:03:33;;;;;;;15.73;9.40;;;1.50;99.90;;;;;;2081743;28;20247;-66
2021/11/06 00:04:34;;;;;;;19.83;10.85;;;1.50;99.90;;;;;;2082793;28;20173;-65
2021/11/06 00:05:36;;;;;;;19.17;9.97;;;1.50;99.90;;;;;;2081634;28;20653;-67
2021/11/06 00:06:36;;;;;;;13.98;8.48;;;1.50;99.90;;;;;;2081563;28;20266;-70
2021/11/06 00:07:37;;;;;;;15.50;9.23;;;1.50;99.90;;;;;;2081779;28;20205;-70
2021/11/06 00:08:38;;;;;;;16.23;9.43;;;1.50;99.90;;;;;;2086933;28;20227;-67
2021/11/06 00:09:39;;;;;;;16.83;9.20;;;1.50;99.90;;;;;;2081822;28;20196;-68
2021/11/06 00:10:40;;;;;;;21.93;10.03;;;1.50;99.90;;;;;;2081616;28;20275;-67
2021/11/06 00:11:41;;;;;;;15.68;9.18;;;1.60;99.90;;;;;;2081368;28;20266;-67
2021/11/06 00:12:42;;;;;;;13.53;8.73;;;1.60;99.90;;;;;;2086989;28;20189;-67
2021/11/06 00:13:43;;;;;;;14.02;9.45;;;1.70;99.90;;;;;;2081894;28;20181;-67
2021/11/06 00:14:44;;;;;;;17.00;9.73;;;1.70;99.90;;;;;;2081703;28;20193;-70
2021/11/06 00:15:46;;;;;;;17.48;10.35;;;1.70;99.90;;;;;;2081821;28;20214;-71
2021/11/06 00:16:46;;;;;;;20.92;10.70;;;1.70;99.90;;;;;;2086893;28;20209;-71
2021/11/06 00:17:47;;;;;;;17.73;9.80;;;1.70;99.90;;;;;;2081605;28;20582;-69
2021/11/06 00:18:48;;;;;;;15.27;9.27;;;1.70;99.90;;;;;;2081481;28;20185;-70
2021/11/06 00:19:49;;;;;;;13.93;8.07;;;1.70;99.90;;;;;;2081635;28;20212;-66
2021/11/06 00:20:50;;;;;;;15.47;9.17;;;1.70;99.90;;;;;;2086979;28;20314;-68
2021/11/06 00:21:51;;;;;;;17.37;9.13;;;1.70;99.90;;;;;;2081416;28;20184;-69
2021/11/06 00:22:51;;;;;;;16.42;9.02;;;1.70;99.90;;;;;;2081610;28;20187;-68
2021/11/06 00:23:52;;;;;;;15.70;8.90;;;1.70;99.90;;;;;;2081645;28;20277;-70
2021/11/06 00:24:53;;;;;;;15.27;9.33;;;1.70;99.90;;;;;;2086715;28;20555;-69
2021/11/06 00:25:54;;;;;;;14.17;8.07;;;1.70;99.90;;;;;;2081719;28;20181;-70
2021/11/06 00:26:54;;;;;;;15.10;9.10;;;1.70;99.90;;;;;;2081760;28;20381;-68
2021/11/06 00:27:55;;;;;;;15.27;9.03;;;1.70;99.90;;;;;;2081775;28;20205;-68
2021/11/06 00:28:56;;;;;;;14.10;8.73;;;1.70;99.90;;;;;;2082212;28;20213;-69
2021/11/06 00:29:57;;;;;;;14.80;8.50;;;1.70;99.90;;;;;;2081638;28;20215;-70
2021/11/06 00:30:57;;;;;;;16.27;9.60;;;1.70;99.90;;;;;;2081598;28;20196;-69
2021/11/06 00:31:58;;;;;;;17.67;9.93;;;1.70;99.90;;;;;;2082065;28;20264;-68
2021/11/06 00:32:59;;;;;;;14.13;8.13;;;1.70;99.90;;;;;;2081863;28;20764;-69
2021/11/06 00:34:00;;;;;;;15.30;9.30;;;1.70;99.90;;;;;;2081670;28;20190;-67
2021/11/06 00:35:01;;;;;;;17.95;10.18;;;1.70;99.90;;;;;;2081655;28;20177;-67
2021/11/06 00:36:02;;;;;;;16.00;9.33;;;1.80;99.90;;;;;;2083136;28;20198;-67
2021/11/06 00:37:03;;;;;;;18.67;10.60;;;1.80;99.90;;;;;;2081389;28;20418;-66
2021/11/06 00:38:04;;;;;;;14.98;9.57;;;1.80;99.90;;;;;;2081331;28;20199;-68
2021/11/06 00:39:05;;;;;;;15.37;8.97;;;1.90;99.90;;;;;;2081679;28;20555;-69
2021/11/06 00:40:09;;;;;;;17.23;9.32;;;1.90;99.90;;;;;;2082973;28;20679;-68
2021/11/06 00:41:10;;;;;;;20.42;10.23;;;1.90;99.90;;;;;;2081079;28;20181;-68
2021/11/06 00:42:10;;;;;;;14.33;8.53;;;2.00;99.90;;;;;;2081437;28;20186;-70
2021/11/06 00:43:11;;;;;;;15.90;8.53;;;2.00;99.90;;;;;;2081611;28;20215;-69
2021/11/06 00:44:12;;;;;;;14.63;8.83;;;2.00;99.90;;;;;;2082727;28;20192;-67
2021/11/06 00:45:13;;;;;;;16.97;9.87;;;2.10;99.90;;;;;;2081549;28;20878;-68
2021/11/06 00:46:14;;;;;;;15.50;9.73;;;2.10;99.90;;;;;;2081389;28;20218;-68
2021/11/06 00:47:14;;;;;;;16.43;9.07;;;2.20;99.90;;;;;;2081498;28;20181;-67
2021/11/06 00:48:15;;;;;;;17.40;9.57;;;2.10;99.90;;;;;;2082687;28;20642;-67
2021/11/06 00:49:16;;;;;;;16.50;9.60;;;2.20;99.90;;;;;;2081513;28;20179;-69
2021/11/06 00:50:17;;;;;;;16.80;9.37;;;2.10;99.90;;;;;;2081252;28;20272;-69
2021/11/06 00:51:18;;;;;;;15.38;8.05;;;2.20;99.90;;;;;;2081127;28;20181;-67
2021/11/06 00:52:18;;;;;;;13.80;8.33;;;2.10;99.90;;;;;;2082574;28;20268;-66
2021/11/06 00:53:19;;;;;;;16.63;9.13;;;2.20;99.90;;;;;;2081252;28;20585;-70
2021/11/06 00:54:20;;;;;;;12.10;8.20;;;2.20;99.90;;;;;;2081232;28;20181;-69
2021/11/06 00:55:22;;;;;;;15.60;8.70;;;2.20;99.90;;;;;;2081414;28;20186;-68
2021/11/06 00:56:23;;;;;;;13.65;8.20;;;2.20;99.90;;;;;;2082503;28;20196;-68
2021/11/06 00:57:23;;;;;;;12.03;7.40;;;2.20;99.90;;;;;;2081349;28;20182;-68
2021/11/06 00:58:24;;;;;;;11.47;7.47;;;2.30;99.90;;;;;;2081218;28;20174;-67
2021/11/06 00:59:25;;;;;;;12.50;7.57;;;2.30;99.90;;;;;;2081427;28;20228;-66
2021/11/06 01:00:25;;;;;;;12.73;7.60;;;2.30;99.90;;;;;;2082653;28;20175;-68
2021/11/06 01:01:26;;;;;;;16.33;9.30;;;2.30;99.90;;;;;;2081320;28;20178;-67
2021/11/06 01:02:27;;;;;;;14.37;7.80;;;2.30;99.90;;;;;;2080910;28;20607;-67
2021/11/06 01:03:28;;;;;;;16.00;8.47;;;2.30;99.90;;;;;;2081189;28;20170;-68
2021/11/06 01:04:28;;;;;;;14.67;8.87;;;2.30;99.90;;;;;;2081628;28;20174;-67
2021/11/06 01:05:29;;;;;;;16.13;8.83;;;2.30;99.90;;;;;;2081956;28;20174;-68
2021/11/06 01:06:30;;;;;;;17.63;9.03;;;2.30;99.90;;;;;;2081933;28;20677;-68
2021/11/06 01:07:30;;;;;;;18.33;8.97;;;2.30;99.90;;;;;;2081790;28;20183;-68
2021/11/06 01:08:31;;;;;;;15.63;8.77;;;2.40;99.90;;;;;;2081777;28;20242;-67
2021/11/06 01:09:32;;;;;;;15.03;8.83;;;2.40;99.90;;;;;;2081364;28;20205;-68
2021/11/06 01:10:33;;;;;;;11.40;7.90;;;2.40;99.90;;;;;;2081528;28;20185;-67
2021/11/06 01:11:34;;;;;;;14.50;8.13;;;2.40;99.90;;;;;;2080833;28;20187;-67
2021/11/06 01:12:35;;;;;;;18.48;10.07;;;2.40;99.90;;;;;;2081533;28;20264;-67
2021/11/06 01:13:37;;;;;;;15.48;8.85;;;2.50;99.90;;;;;;2081798;28;20175;-67
2021/11/06 01:14:37;;;;;;;13.63;8.30;;;2.50;99.90;;;;;;2081552;28;20270;-67
2021/11/06 01:15:39;;;;;;;14.40;8.27;;;2.50;99.90;;;;;;2081602;28;20191;-68
2021/11/06 01:16:41;;;;;;;16.30;8.07;;;2.50;99.90;;;;;;2081519;28;20201;-68
2021/11/06 01:17:43;;;;;;;13.20;7.80;;;2.50;99.90;;;;;;2081220;28;20205;-67
2021/11/06 01:18:44;;;;;;;16.15;8.70;;;2.50;99.90;;;;;;2081654;28;20183;-67
2021/11/06 01:19:44;;;;;;;11.13;7.60;;;2.40;99.90;;;;;;2081527;28;20625;-68
2021/11/06 01:20:45;;;;;;;13.17;7.90;;;2.40;99.90;;;;;;2081452;28;20234;-69
2021/11/06 01:21:46;;;;;;;17.13;9.27;;;2.40;99.90;;;;;;2081388;28;20238;-69
2021/11/06 01:22:47;;;;;;;17.43;8.73;;;2.40;99.90;;;;;;2081570;28;20202;-68
2021/11/06 01:23:47;;;;;;;15.60;8.93;;;2.40;99.90;;;;;;2081397;28;20596;-68
2021/11/06 01:24:48;;;;;;;12.27;8.07;;;2.50;99.90;;;;;;2081694;28;20587;-69
2021/11/06 01:25:49;;;;;;;16.37;9.07;;;2.50;99.90;;;;;;2081356;28;20226;-68
2021/11/06 01:26:50;;;;;;;18.40;9.23;;;2.50;99.90;;;;;;2081504;28;20171;-68
2021/11/06 01:27:50;;;;;;;18.07;10.20;;;2.50;99.90;;;;;;2081391;28;20741;-69
2021/11/06 01:28:51;;;;;;;17.40;9.70;;;2.50;99.90;;;;;;2081768;28;20186;-68
2021/11/06 01:29:52;;;;;;;16.53;9.73;;;2.60;99.90;;;;;;2081425;28;20188;-68
2021/11/06 01:30:53;;;;;;;18.23;10.20;;;2.50;99.90;;;;;;2081081;28;20451;-69
2021/11/06 01:31:54;;;;;;;20.50;10.30;;;2.50;99.90;;;;;;2081160;28;20198;-68
2021/11/06 01:32:54;;;;;;;20.27;11.13;;;2.50;99.90;;;;;;2081646;28;20184;-69
2021/11/06 01:33:55;;;;;;;20.20;11.27;;;2.50;99.90;;;;;;2081346;28;20674;-68
2021/11/06 01:34:56;;;;;;;21.70;10.90;;;2.40;99.90;;;;;;2081557;28;20185;-68
2021/11/06 01:35:57;;;;;;;19.42;11.70;;;2.50;99.90;;;;;;2081538;28;20187;-69
2021/11/06 01:36:58;;;;;;;24.07;11.57;;;2.50;99.90;;;;;;2081358;28;20241;-68
2021/11/06 01:37:59;;;;;;;20.77;11.50;;;2.50;99.90;;;;;;2081314;28;20201;-69
2021/11/06 01:39:00;;;;;;;23.27;10.97;;;2.50;99.90;;;;;;2081593;28;20664;-68
2021/11/06 01:40:01;;;;;;;25.27;12.90;;;2.50;99.90;;;;;;2081358;28;20511;-68
2021/11/06 01:41:02;;;;;;;26.45;11.73;;;2.50;99.90;;;;;;2081290;28;20186;-68
2021/11/06 01:42:03;;;;;;;26.30;12.70;;;2.50;99.90;;;;;;2081085;28;20221;-68
2021/11/06 01:43:04;;;;;;;34.92;14.00;;;2.50;99.90;;;;;;2081476;28;20186;-68
2021/11/06 01:44:05;;;;;;;32.17;13.00;;;2.60;99.90;;;;;;2080691;28;20274;-69
2021/11/06 01:45:07;;;;;;;26.10;12.67;;;2.60;99.90;;;;;;2080891;28;20707;-68
2021/11/06 01:46:10;;;;;;;40.97;15.68;;;2.70;99.90;;;;;;2080589;28;20576;-68
2021/11/06 01:47:11;;;;;;;26.88;13.25;;;2.70;99.90;;;;;;2080766;28;20182;-68
2021/11/06 01:48:12;;;;;;;36.50;15.03;;;2.70;99.90;;;;;;2081040;28;20206;-68
2021/11/06 01:49:14;;;;;;;38.23;14.57;;;2.70;99.90;;;;;;2081468;28;20194;-67
2021/11/06 01:50:16;;;;;;;40.05;14.75;;;2.70;99.90;;;;;;2081269;28;20205;-68
2021/11/06 01:51:17;;;;;;;41.65;14.68;;;2.70;99.90;;;;;;2081167;28;20955;-68
2021/11/06 01:52:18;;;;;;;27.45;12.80;;;2.70;99.90;;;;;;2081253;28;20194;-68
2021/11/06 01:53:19;;;;;;;36.27;14.83;;;2.70;99.90;;;;;;2081339;28;20218;-69
2021/11/06 01:54:25;;;;;;;34.87;13.60;;;2.70;99.90;;;;;;2081352;28;20303;-68
2021/11/06 01:55:26;;;;;;;34.90;13.77;;;2.70;99.90;;;;;;2081582;28;20282;-68
2021/11/06 01:56:27;;;;;;;33.43;13.67;;;2.70;99.90;;;;;;2081170;28;20300;-68
2021/11/06 01:57:28;;;;;;;28.77;12.43;;;2.70;99.90;;;;;;2081280;28;20261;-68
2021/11/06 01:58:30;;;;;;;32.83;12.00;;;2.70;99.90;;;;;;2080594;28;20816;-69
2021/11/06 01:59:31;;;;;;;27.92;12.50;;;2.70;99.90;;;;;;2080774;28;20178;-69
2021/11/06 02:00:32;;;;;;;30.67;12.77;;;2.70;99.90;;;;;;2081302;28;20217;-68
2021/11/06 02:01:32;;;;;;;41.00;13.43;;;2.70;99.90;;;;;;2081084;28;20213;-68
2021/11/06 02:02:34;;;;;;;48.90;15.23;;;2.70;99.90;;;;;;2081293;28;20264;-70
2021/11/06 02:03:35;;;;;;;57.15;19.50;;;2.70;99.90;;;;;;2081277;28;20180;-68
2021/11/06 02:04:36;;;;;;;54.47;15.77;;;2.70;99.90;;;;;;2081239;28;20177;-68
2021/11/06 02:05:37;;;;;;;70.43;16.17;;;2.80;99.90;;;;;;2081424;28;20189;-68
2021/11/06 02:06:38;;;;;;;61.83;15.97;;;2.80;99.90;;;;;;2081427;28;20225;-68
2021/11/06 02:07:39;;;;;;;140.38;24.30;;;2.80;99.90;;;;;;2081394;28;20568;-68
2021/11/06 02:08:39;;;;;;;120.27;22.37;;;2.80;99.90;;;;;;2081468;28;20269;-69
2021/11/06 02:09:40;;;;;;;94.97;21.77;;;2.80;99.90;;;;;;2081249;28;20182;-68
2021/11/06 02:10:42;;;;;;;52.90;15.87;;;2.80;99.90;;;;;;2081548;28;20192;-69
2021/11/06 02:11:43;;;;;;;77.50;17.40;;;2.80;99.90;;;;;;2081181;28;20755;-70
2021/11/06 02:12:45;;;;;;;69.18;16.58;;;2.80;99.90;;;;;;2081437;28;20217;-68
2021/11/06 02:13:45;;;;;;;33.80;12.98;;;2.90;99.90;;;;;;2081233;28;20185;-68
2021/11/06 02:14:46;;;;;;;43.13;13.97;;;2.80;99.90;;;;;;2081409;28;20270;-68
2021/11/06 02:15:48;;;;;;;106.83;19.53;;;2.80;99.90;;;;;;2081416;28;20290;-68
2021/11/06 02:16:51;;;;;;;76.35;19.13;;;2.80;99.90;;;;;;2081256;28;20216;-68
2021/11/06 02:17:53;;;;;;;140.30;24.23;;;2.80;99.90;;;;;;2081118;28;20194;-68
2021/11/06 02:18:53;;;;;;;95.85;21.48;;;2.80;99.90;;;;;;2081286;28;20182;-69
2021/11/06 02:19:54;;;;;;;112.43;22.53;;;2.80;99.90;;;;;;2081155;28;20178;-68
2021/11/06 02:21:01;;;;;;;71.93;16.27;;;2.80;99.90;;;;;;2081302;28;20173;-68
2021/11/06 02:22:02;;;;;;;49.80;15.43;;;2.80;99.90;;;;;;2081245;28;20186;-69
2021/11/06 02:23:04;;;;;;;66.38;17.60;;;2.90;99.90;;;;;;2081261;28;20291;-68
2021/11/06 02:24:06;;;;;;;55.88;16.80;;;2.90;99.90;;;;;;2081209;28;20236;-67
2021/11/06 02:25:08;;;;;;;78.60;17.40;;;2.80;99.90;;;;;;2081288;28;20539;-67
2021/11/06 02:26:11;;;;;;;103.18;18.20;;;2.80;99.90;;;;;;2081119;28;20181;-67
2021/11/06 02:27:12;;;;;;;83.47;17.13;;;2.70;99.90;;;;;;2081379;28;20197;-68
2021/11/06 02:28:13;;;;;;;56.47;15.07;;;2.70;99.90;;;;;;2081004;28;20701;-67
2021/11/06 02:29:16;;;;;;;49.17;16.13;;;2.70;99.90;;;;;;2081256;28;20210;-68
2021/11/06 02:30:18;;;;;;;181.63;27.85;;;2.70;99.90;;;;;;2081083;28;20645;-67
2021/11/06 02:31:19;;;;;;;346.50;40.10;;;2.70;99.90;;;;;;2080922;28;20714;-68
2021/11/06 02:32:20;;;;;;;125.30;21.77;;;2.70;99.90;;;;;;2080960;28;20181;-69
2021/11/06 02:33:21;;;;;;;248.10;32.23;;;2.70;99.90;;;;;;2081264;28;20273;-68
2021/11/06 02:34:21;;;;;;;271.23;35.87;;;2.70;99.90;;;;;;2081096;28;20178;-67
2021/11/06 02:35:22;;;;;;;140.13;22.20;;;2.80;99.90;;;;;;2081351;28;20176;-68
2021/11/06 02:36:23;;;;;;;148.23;23.60;;;2.80;99.90;;;;;;2081012;28;20277;-68
2021/11/06 02:37:23;;;;;;;526.47;48.57;;;2.80;99.90;;;;;;2081020;28;20326;-68
2021/11/06 02:38:24;;;;;;;342.23;33.20;;;2.90;99.90;;;;;;2081053;28;20642;-68
2021/11/06 02:39:25;;;;;;;144.97;25.47;;;2.90;99.90;;;;;;2081175;28;20706;-68
2021/11/06 02:40:26;;;;;;;211.67;28.23;;;2.90;99.90;;;;;;2081162;28;20174;-67
2021/11/06 02:41:27;;;;;;;415.07;44.60;;;2.90;99.90;;;;;;2081019;28;20170;-68
2021/11/06 02:42:27;;;;;;;336.23;35.80;;;2.90;99.90;;;;;;2081149;28;20179;-67
2021/11/06 02:43:28;;;;;;;331.73;34.07;;;2.90;99.90;;;;;;2081213;28;20421;-68
2021/11/06 02:44:29;;;;;;;550.60;48.63;;;2.90;99.90;;;;;;2081253;28;20202;-67
2021/11/06 02:45:31;;;;;;;479.25;45.53;;;2.90;99.90;;;;;;2081290;28;20598;-67
2021/11/06 02:46:35;;;;;;;288.63;38.13;;;2.90;99.90;;;;;;2081063;28;20187;-67
2021/11/06 02:47:37;;;;;;;453.55;44.67;;;2.90;99.90;;;;;;2081191;28;20203;-68
2021/11/06 02:48:37;;;;;;;196.10;27.25;;;2.90;99.90;;;;;;2080889;28;20534;-68
2021/11/06 02:49:38;;;;;;;465.40;42.93;;;2.90;99.90;;;;;;2081077;28;20277;-70
2021/11/06 02:50:39;;;;;;;297.33;29.17;;;3.00;99.90;;;;;;2081102;28;20166;-68
2021/11/06 02:51:40;;;;;;;529.20;46.43;;;3.00;99.90;;;;;;2081105;28;20188;-68
2021/11/06 02:52:41;;;;;;;392.87;40.47;;;3.00;99.90;;;;;;2081145;28;20240;-68
2021/11/06 02:53:42;;;;;;;187.57;20.25;;;2.90;99.90;;;;;;2081106;28;20269;-67
2021/11/06 02:54:43;;;;;;;430.83;45.55;;;2.90;99.90;;;;;;2081009;28;20201;-69
2021/11/06 02:55:44;;;;;;;210.20;23.60;;;2.90;99.90;;;;;;2081137;28;20173;-68
2021/11/06 02:56:45;;;;;;;301.55;36.05;;;2.90;99.90;;;;;;2080869;28;20243;-67
2021/11/06 02:57:46;;;;;;;402.10;42.20;;;2.90;99.90;;;;;;2081010;28;20682;-68
2021/11/06 02:58:46;;;;;;;72.47;16.40;;;2.90;99.90;;;;;;2074542;28;20697;-69
2021/11/06 02:59:50;;;;;;;284.60;32.77;;;2.90;99.90;;;;;;2080319;28;20209;-68
2021/11/06 03:00:50;;;;;;;280.98;29.92;;;2.90;99.90;;;;;;2080608;28;20186;-68
2021/11/06 03:01:52;;;;;;;173.90;22.43;;;2.90;99.90;;;;;;2080903;28;20658;-67
2021/11/06 03:02:56;;;;;;;256.77;26.77;;;2.90;99.90;;;;;;2081224;28;20176;-68
2021/11/06 03:03:57;;;;;;;240.43;26.42;;;2.90;99.90;;;;;;2081209;28;20187;-68
2021/11/06 03:05:04;;;;;;;248.40;27.50;;;2.80;99.90;;;;;;2080411;28;20719;-68
2021/11/06 03:06:05;;;;;;;173.63;20.10;;;2.80;99.90;;;;;;2080652;28;20171;-68
2021/11/06 03:07:06;;;;;;;250.82;25.55;;;2.80;99.90;;;;;;2080993;28;20226;-68
2021/11/06 03:08:07;;;;;;;212.50;24.15;;;2.80;99.90;;;;;;2081062;28;20298;-68
2021/11/06 03:09:08;;;;;;;342.20;24.73;;;2.80;99.90;;;;;;2081310;28;20188;-68
2021/11/06 03:10:12;;;;;;;251.90;23.70;;;2.70;99.90;;;;;;2080989;28;20191;-68
2021/11/06 03:11:13;;;;;;;185.77;22.88;;;2.70;99.90;;;;;;2080759;28;20400;-69
2021/11/06 03:12:15;;;;;;;251.43;25.93;;;2.60;99.90;;;;;;2081054;28;20212;-68
2021/11/06 03:13:16;;;;;;;450.73;39.92;;;2.60;99.90;;;;;;2081124;28;20187;-68
2021/11/06 03:14:16;;;;;;;414.23;39.90;;;2.60;99.90;;;;;;2080303;28;20210;-67
2021/11/06 03:15:18;;;;;;;174.17;24.73;;;2.50;99.90;;;;;;2080311;28;20179;-68
2021/11/06 03:16:18;;;;;;;294.25;35.40;;;2.50;99.90;;;;;;2080959;28;20522;-68
2021/11/06 03:17:19;;;;;;;508.77;47.30;;;2.60;99.90;;;;;;2081018;28;20184;-68
2021/11/06 03:18:20;;;;;;;193.97;29.90;;;2.60;99.90;;;;;;2080895;28;20638;-68
2021/11/06 03:19:21;;;;;;;190.10;23.47;;;2.60;99.90;;;;;;2080997;28;20186;-69
2021/11/06 03:20:21;;;;;;;535.40;50.60;;;2.60;99.90;;;;;;2080912;28;20182;-69
2021/11/06 03:21:24;;;;;;;367.27;31.60;;;2.60;99.90;;;;;;2080890;28;20207;-69
2021/11/06 03:22:25;;;;;;;359.35;36.60;;;2.60;99.90;;;;;;2080825;28;20623;-68
2021/11/06 03:23:27;;;;;;;356.20;38.30;;;2.60;99.90;;;;;;2080938;28;20169;-68
2021/11/06 03:24:28;;;;;;;439.67;45.88;;;2.60;99.90;;;;;;2080719;28;20179;-68
2021/11/06 03:25:29;;;;;;;393.93;41.70;;;2.60;99.90;;;;;;2081022;28;20182;-68
2021/11/06 03:26:30;;;;;;;211.90;24.70;;;2.50;99.90;;;;;;2080718;28;20516;-69
2021/11/06 03:27:32;;;;;;;551.83;46.40;;;2.60;99.90;;;;;;2080902;28;20208;-68
2021/11/06 03:28:33;;;;;;;463.90;44.03;;;2.60;99.90;;;;;;2080845;28;20583;-68
2021/11/06 03:29:34;;;;;;;462.63;44.03;;;2.60;99.90;;;;;;2080992;28;20216;-67
2021/11/06 03:30:35;;;;;;;351.17;29.55;;;2.60;99.90;;;;;;2080852;28;20803;-68
2021/11/06 03:31:35;;;;;;;206.03;22.90;;;2.60;99.90;;;;;;2080484;28;20179;-68
2021/11/06 03:32:37;;;;;;;190.63;24.60;;;2.50;99.90;;;;;;2080699;28;20169;-68
2021/11/06 03:33:38;;;;;;;214.35;21.35;;;2.50;99.90;;;;;;2080857;28;20179;-68
2021/11/06 03:34:39;;;;;;;315.13;33.20;;;2.50;99.90;;;;;;2081454;28;20177;-68
2021/11/06 03:35:39;;;;;;;314.50;32.43;;;2.40;99.90;;;;;;2082342;28;20657;-69
2021/11/06 03:36:40;;;;;;;221.07;28.17;;;2.40;99.90;;;;;;2082174;28;20212;-68
2021/11/06 03:37:43;;;;;;;231.45;25.85;;;2.40;99.90;;;;;;2082365;28;20288;-68
2021/11/06 03:38:44;;;;;;;272.15;30.27;;;2.40;99.90;;;;;;2082273;28;20209;-68
2021/11/06 03:39:45;;;;;;;458.27;43.00;;;2.40;99.90;;;;;;2082510;28;20184;-67
2021/11/06 03:40:46;;;;;;;241.33;30.70;;;2.30;99.90;;;;;;2082331;28;20181;-69
2021/11/06 03:41:47;;;;;;;378.27;34.97;;;2.30;99.90;;;;;;2082165;28;20648;-68
2021/11/06 03:42:47;;;;;;;414.52;39.72;;;2.40;99.90;;;;;;2082257;28;20186;-68
2021/11/06 03:43:48;;;;;;;204.40;19.30;;;2.40;99.90;;;;;;2082440;28;20184;-67
2021/11/06 03:44:49;;;;;;;345.07;31.50;;;2.40;99.90;;;;;;2082283;28;20235;-68
2021/11/06 03:45:50;;;;;;;487.23;39.43;;;2.40;99.90;;;;;;2082543;28;20179;-68
2021/11/06 03:46:50;;;;;;;406.70;34.87;;;2.30;99.90;;;;;;2082386;28;20644;-68
2021/11/06 03:47:51;;;;;;;321.40;31.80;;;2.30;99.90;;;;;;2082194;28;20211;-68
2021/11/06 03:48:53;;;;;;;385.43;33.23;;;2.30;99.90;;;;;;2082137;28;20178;-68
2021/11/06 03:49:53;;;;;;;396.88;30.70;;;2.30;99.90;;;;;;2082007;28;20189;-67
2021/11/06 03:50:54;;;;;;;311.20;29.43;;;2.20;99.90;;;;;;2081603;28;20222;-67
2021/11/06 03:51:55;;;;;;;293.55;26.60;;;2.20;99.90;;;;;;2075101;28;20231;-67
2021/11/06 03:52:56;;;;;;;188.93;20.23;;;2.20;99.90;;;;;;2082104;28;20185;-68
2021/11/06 03:53:57;;;;;;;190.13;20.37;;;2.10;99.90;;;;;;2081998;28;20182;-68
2021/11/06 03:54:57;;;;;;;402.92;33.10;;;2.10;99.90;;;;;;2082261;28;20190;-68
2021/11/06 03:55:59;;;;;;;224.00;23.00;;;2.10;99.90;;;;;;2082146;28;20181;-69
2021/11/06 03:56:59;;;;;;;210.23;20.55;;;2.10;99.90;;;;;;2082186;28;20218;-67
2021/11/06 03:58:00;;;;;;;383.80;31.23;;;2.10;99.90;;;;;;2082062;28;20286;-68
2021/11/06 03:59:01;;;;;;;457.37;37.73;;;2.00;99.90;;;;;;2082124;28;20651;-68
2021/11/06 04:00:09;;;;;;;189.77;17.97;;;2.10;99.90;;;;;;2081937;28;20273;-68
2021/11/06 04:01:10;;;;;;;311.73;26.90;;;2.00;99.90;;;;;;2081887;28;20705;-68
2021/11/06 04:02:11;;;;;;;271.90;25.20;;;2.00;99.90;;;;;;2082036;28;20279;-67
2021/11/06 04:03:12;;;;;;;450.87;35.93;;;2.00;99.90;;;;;;2082159;28;20173;-68
2021/11/06 04:04:12;;;;;;;479.63;39.17;;;1.90;99.90;;;;;;2081862;28;20181;-68
2021/11/06 04:05:14;;;;;;;362.43;29.50;;;1.90;99.90;;;;;;2082138;28;20189;-68
2021/11/06 04:06:15;;;;;;;269.75;24.48;;;1.90;99.90;;;;;;2082040;28;20182;-68
2021/11/06 04:07:16;;;;;;;207.15;18.48;;;2.00;99.90;;;;;;2082063;28;20205;-69
2021/11/06 04:08:17;;;;;;;176.57;17.17;;;2.00;99.90;;;;;;2082045;28;20178;-67
2021/11/06 04:09:17;;;;;;;266.90;26.67;;;2.00;99.90;;;;;;2081919;28;20218;-68
2021/11/06 04:10:18;;;;;;;413.70;33.70;;;2.00;99.90;;;;;;2081990;28;20201;-69
2021/11/06 04:11:19;;;;;;;251.87;22.87;;;2.00;99.90;;;;;;2081978;28;20472;-68
2021/11/06 04:12:19;;;;;;;216.47;20.37;;;2.00;99.90;;;;;;2081929;28;20212;-68
2021/11/06 04:13:20;;;;;;;168.70;17.30;;;1.90;99.90;;;;;;2082089;28;20206;-68
2021/11/06 04:14:21;;;;;;;174.07;15.43;;;1.90;99.90;;;;;;2081831;28;20227;-68
2021/11/06 04:15:22;;;;;;;337.15;28.90;;;1.90;99.90;;;;;;2081986;28;20181;-69
2021/11/06 04:16:23;;;;;;;355.90;28.67;;;1.80;99.90;;;;;;2081809;28;20597;-68
2021/11/06 04:17:24;;;;;;;483.70;34.37;;;1.70;99.90;;;;;;2081966;28;20632;-68
2021/11/06 04:18:24;;;;;;;489.47;37.63;;;1.70;99.90;;;;;;2081908;28;20173;-68
2021/11/06 04:19:25;;;;;;;171.53;19.00;;;1.70;99.90;;;;;;2081847;28;20182;-68
2021/11/06 04:20:26;;;;;;;384.30;30.23;;;1.70;99.90;;;;;;2081906;28;20184;-67
2021/11/06 04:21:26;;;;;;;316.27;27.70;;;1.60;99.90;;;;;;2081629;28;20303;-68
2021/11/06 04:22:27;;;;;;;169.73;15.73;;;1.60;99.90;;;;;;2082049;28;20181;-68
2021/11/06 04:23:28;;;;;;;361.53;30.47;;;1.60;99.90;;;;;;2081911;28;20225;-67
2021/11/06 04:24:28;;;;;;;371.33;31.70;;;1.70;99.90;;;;;;2081875;28;20653;-68
2021/11/06 04:25:29;;;;;;;484.10;36.63;;;1.70;99.90;;;;;;2081907;28;20176;-68
2021/11/06 04:26:30;;;;;;;228.43;19.10;;;1.70;99.90;;;;;;2082169;28;20182;-68
2021/11/06 04:27:31;;;;;;;379.63;31.37;;;1.70;99.90;;;;;;2081853;28;20173;-69
2021/11/06 04:28:31;;;;;;;170.60;16.13;;;1.60;99.90;;;;;;2081998;28;20704;-68
2021/11/06 04:29:32;;;;;;;442.30;33.80;;;1.60;99.90;;;;;;2081830;28;20185;-67
2021/11/06 04:30:33;;;;;;;326.50;27.03;;;1.60;99.90;;;;;;2081906;28;20235;-68
2021/11/06 04:31:34;;;;;;;261.97;21.57;;;1.60;99.90;;;;;;2081542;28;20215;-68
2021/11/06 04:32:35;;;;;;;507.43;35.90;;;1.60;99.90;;;;;;2082045;28;20260;-69
2021/11/06 04:33:36;;;;;;;337.23;30.67;;;1.50;99.90;;;;;;2081735;28;20180;-68
2021/11/06 04:34:36;;;;;;;346.17;24.70;;;1.50;99.90;;;;;;2082246;28;20436;-68
2021/11/06 04:35:37;;;;;;;465.57;33.00;;;1.50;99.90;;;;;;2083648;28;20177;-68
2021/11/06 04:36:38;;;;;;;550.27;37.13;;;1.50;99.90;;;;;;2083333;28;20205;-69
2021/11/06 04:37:39;;;;;;;345.00;23.10;;;1.50;99.90;;;;;;2083573;28;20193;-68
2021/11/06 04:38:40;;;;;;;351.60;28.38;;;1.40;99.90;;;;;;2084031;28;20170;-68
2021/11/06 04:39:41;;;;;;;123.80;12.33;;;1.30;99.90;;;;;;2083482;28;20185;-68
2021/11/06 04:40:41;;;;;;;151.30;15.87;;;1.30;99.90;;;;;;2083554;28;20383;-68
2021/11/06 04:41:42;;;;;;;108.53;10.53;;;1.40;99.90;;;;;;2083201;28;20268;-67
2021/11/06 04:42:43;;;;;;;381.77;31.63;;;1.40;99.90;;;;;;2083922;28;20244;-67
2021/11/06 04:43:44;;;;;;;439.67;30.23;;;1.40;99.90;;;;;;2083467;28;20185;-67
2021/11/06 04:44:45;;;;;;;351.80;29.57;;;1.30;99.90;;;;;;2083695;28;20217;-68
2021/11/06 04:45:45;;;;;;;304.07;28.63;;;1.30;99.90;;;;;;2083618;28;20574;-68
2021/11/06 04:46:46;;;;;;;264.47;26.30;;;1.30;99.90;;;;;;2083444;28;20188;-68
2021/11/06 04:47:47;;;;;;;335.00;28.27;;;1.30;99.90;;;;;;2083152;28;20232;-67
2021/11/06 04:48:47;;;;;;;305.87;25.70;;;1.30;99.90;;;;;;2083513;28;20661;-67
2021/11/06 04:49:48;;;;;;;128.83;15.43;;;1.20;99.90;;;;;;2083817;28;20223;-68
2021/11/06 04:50:49;;;;;;;507.88;35.13;;;1.20;99.90;;;;;;2083677;28;20165;-68
2021/11/06 04:51:50;;;;;;;327.27;29.50;;;1.10;99.90;;;;;;2083327;28;20579;-68
2021/11/06 04:52:51;;;;;;;136.83;14.00;;;1.10;99.90;;;;;;2083449;28;20185;-69
2021/11/06 04:53:51;;;;;;;153.63;13.87;;;1.10;99.90;;;;;;2082856;28;20181;-68
2021/11/06 04:54:52;;;;;;;201.57;14.60;;;1.10;99.90;;;;;;2082126;28;20268;-68
2021/11/06 04:55:53;;;;;;;140.43;13.57;;;1.10;99.90;;;;;;2081795;28;20218;-68
2021/11/06 04:56:54;;;;;;;199.83;19.70;;;1.10;99.90;;;;;;2081840;28;20258;-68
2021/11/06 04:57:54;;;;;;;226.27;22.70;;;1.10;99.90;;;;;;2081763;28;20200;-68
2021/11/06 04:58:55;;;;;;;341.83;27.70;;;1.00;99.90;;;;;;2081880;28;20273;-67
2021/11/06 04:59:56;;;;;;;313.03;26.37;;;1.00;99.90;;;;;;2081794;28;20216;-68
2021/11/06 05:00:57;;;;;;;393.23;28.03;;;1.00;99.90;;;;;;2081784;28;20239;-68
2021/11/06 05:01:57;;;;;;;345.67;25.90;;;1.00;99.90;;;;;;2081503;28;20187;-68
2021/11/06 05:02:58;;;;;;;270.57;22.57;;;1.00;99.90;;;;;;2081383;28;20173;-68
2021/11/06 05:03:59;;;;;;;195.33;13.43;;;1.00;99.90;;;;;;2081645;28;20177;-68
2021/11/06 05:04:59;;;;;;;323.80;25.90;;;1.00;99.90;;;;;;2080861;28;20192;-69
2021/11/06 05:06:00;;;;;;;276.83;28.97;;;1.00;99.90;;;;;;2081044;28;20715;-68
2021/11/06 05:07:01;;;;;;;220.87;25.23;;;0.90;99.90;;;;;;2081525;28;20177;-68
2021/11/06 05:08:01;;;;;;;209.00;20.80;;;0.90;99.90;;;;;;2081596;28;20231;-67
2021/11/06 05:09:02;;;;;;;159.47;15.53;;;0.90;99.90;;;;;;2081409;28;20667;-68
2021/11/06 05:10:05;;;;;;;285.07;22.90;;;0.90;99.90;;;;;;2081608;28;20228;-68
2021/11/06 05:11:05;;;;;;;145.65;16.83;;;0.90;99.90;;;;;;2081324;28;20470;-68
2021/11/06 05:12:07;;;;;;;118.33;11.80;;;0.90;99.90;;;;;;2081616;28;20212;-68